createdAt,value
2019-04-20T00:00:43.000Z,9.60
2019-04-20T00:03:09.656Z,9.60
2019-04-20T00:05:37.307Z,9.50
2019-04-20T00:08:08.919Z,9.30
2019-04-20T00:10:42.486Z,9.30
2019-04-20T00:13:17.604Z,9.60
2019-04-20T00:15:32.956Z,9.20
2019-04-20T00:18:03.498Z,9.20
2019-04-20T00:20:33.733Z,9.10
2019-04-20T00:23:19.868Z,9.00
2019-04-20T00:26:12.399Z,8.90
2019-04-20T00:28:45.715Z,9.00
2019-04-20T00:31:19.073Z,9.00
2019-04-20T00:33:43.551Z,8.90
2019-04-20T00:35:59.497Z,8.90
2019-04-20T00:38:33.650Z,8.90
2019-04-20T00:41:04.694Z,8.90
2019-04-20T00:43:30.237Z,8.80
2019-04-20T00:46:01.138Z,8.80
2019-04-20T00:48:33.708Z,8.70
2019-04-20T00:51:11.553Z,8.60
2019-04-20T00:53:31.382Z,8.60
2019-04-20T00:55:52.975Z,8.60
2019-04-20T00:58:29.549Z,8.60
2019-04-20T01:01:17.284Z,8.60
2019-04-20T01:03:33.982Z,8.50
2019-04-20T01:06:26.918Z,8.60
2019-04-20T01:09:01.247Z,8.60
2019-04-20T01:11:33.942Z,8.70
2019-04-20T01:14:02.996Z,8.60
2019-04-20T01:16:36.592Z,8.50
2019-04-20T01:18:57.076Z,8.50
2019-04-20T01:21:27.113Z,8.50
2019-04-20T01:23:59.558Z,8.40
2019-04-20T01:26:24.835Z,8.40
2019-04-20T01:29:06.656Z,8.30
2019-04-20T01:31:33.996Z,8.30
2019-04-20T01:34:00.683Z,8.30
2019-04-20T01:36:42.970Z,8.30
2019-04-20T01:39:03.506Z,8.10
2019-04-20T01:41:20.294Z,8.20
2019-04-20T01:43:48.115Z,8.10
2019-04-20T01:46:20.683Z,8.10
2019-04-20T01:48:46.257Z,8.00
2019-04-20T01:51:22.470Z,8.00
2019-04-20T01:54:11.717Z,7.90
2019-04-20T01:56:43.767Z,7.80
2019-04-20T01:59:26.666Z,7.20
2019-04-20T02:02:04.658Z,7.80
2019-04-20T02:04:48.230Z,7.70
2019-04-20T02:07:13.628Z,7.70
2019-04-20T02:09:48.457Z,7.60
2019-04-20T02:12:18.227Z,7.70
2019-04-20T02:14:47.342Z,7.60
2019-04-20T02:17:19.634Z,7.60
2019-04-20T02:19:59.812Z,7.50
2019-04-20T02:22:23.165Z,7.60
2019-04-20T02:24:38.688Z,7.70
2019-04-20T02:27:06.384Z,7.70
2019-04-20T02:29:58.287Z,7.70
2019-04-20T02:32:39.517Z,7.80
2019-04-20T02:35:36.163Z,7.80
2019-04-20T02:38:10.561Z,7.90
2019-04-20T02:43:11.928Z,7.90
2019-04-20T02:48:07.740Z,7.70
2019-04-20T02:50:37.972Z,7.70
2019-04-20T02:55:36.377Z,7.40
2019-04-20T02:58:18.308Z,7.30
2019-04-20T03:00:29.882Z,7.10
2019-04-20T03:02:42.934Z,7.00
2019-04-20T03:05:14.902Z,6.80
2019-04-20T03:07:50.031Z,6.70
2019-04-20T03:10:17.735Z,6.60
2019-04-20T03:12:53.716Z,6.70
2019-04-20T03:15:13.938Z,6.60
2019-04-20T03:17:49.840Z,6.70
2019-04-20T03:20:19.558Z,6.80
2019-04-20T03:25:18.060Z,6.90
2019-04-20T03:27:59.584Z,7.00
2019-04-20T03:33:28.614Z,6.90
2019-04-20T03:35:43.113Z,6.90
2019-04-20T03:38:06.040Z,6.80
2019-04-20T03:40:29.635Z,6.90
2019-04-20T03:42:46.515Z,6.80
2019-04-20T03:45:17.712Z,6.80
2019-04-20T03:47:55.928Z,6.70
2019-04-20T03:50:37.863Z,6.40
2019-04-20T03:53:13.948Z,6.40
2019-04-20T03:58:33.482Z,6.30
2019-04-20T04:01:27.371Z,6.50
2019-04-20T04:03:58.974Z,6.40
2019-04-20T04:06:17.818Z,6.60
2019-04-20T04:08:48.719Z,6.50
2019-04-20T04:11:21.800Z,6.70
2019-04-20T04:13:35.856Z,6.80
2019-04-20T04:16:08.704Z,6.70
2019-04-20T04:18:38.616Z,6.70
2019-04-20T04:21:08.466Z,6.60
2019-04-20T04:23:48.928Z,6.50
2019-04-20T04:26:17.549Z,6.50
2019-04-20T04:28:46.257Z,6.70
2019-04-20T04:31:16.023Z,6.40
2019-04-20T04:36:14.025Z,6.40
2019-04-20T04:38:47.543Z,6.30
2019-04-20T04:41:18.287Z,6.60
2019-04-20T04:43:48.066Z,6.60
2019-04-20T04:45:55.633Z,6.90
2019-04-20T04:48:31.046Z,7.20
2019-04-20T04:50:58.995Z,7.20
2019-04-20T04:53:29.864Z,7.40
2019-04-20T04:55:58.315Z,7.40
2019-04-20T04:58:21.616Z,7.30
2019-04-20T05:00:49.470Z,7.70
2019-04-20T05:03:37.593Z,7.70
2019-04-20T05:06:41.407Z,7.70
2019-04-20T05:08:49.937Z,7.80
2019-04-20T05:11:13.169Z,7.80
2019-04-20T05:13:50.076Z,8.00
2019-04-20T05:16:32.715Z,8.00
2019-04-20T05:19:05.028Z,8.10
2019-04-20T05:21:57.434Z,8.10
2019-04-20T05:24:34.860Z,8.20
2019-04-20T05:27:30.246Z,8.30
2019-04-20T05:29:39.395Z,8.40
2019-04-20T05:32:13.235Z,8.60
2019-04-20T05:34:59.694Z,8.60
2019-04-20T05:37:34.377Z,8.80
2019-04-20T05:39:59.029Z,9.00
2019-04-20T05:42:30.026Z,9.10
2019-04-20T05:44:55.726Z,9.30
2019-04-20T05:47:21.677Z,9.30
2019-04-20T05:49:49.977Z,9.40
2019-04-20T05:52:39.116Z,9.50
2019-04-20T05:54:50.854Z,9.50
2019-04-20T05:57:27.712Z,9.90
2019-04-20T06:02:22.859Z,10.10
2019-04-20T06:07:23.989Z,10.40
2019-04-20T06:09:47.970Z,10.60
2019-04-20T06:17:58.449Z,11.00
2019-04-20T06:23:14.257Z,11.20
2019-04-20T06:26:11.089Z,11.40
2019-04-20T06:28:14.869Z,11.60
2019-04-20T06:30:43.299Z,11.80
2019-04-20T06:41:19.349Z,12.30
2019-04-20T06:43:40.970Z,12.60
2019-04-20T06:46:10.297Z,12.90
2019-04-20T06:48:40.162Z,12.90
2019-04-20T06:51:11.703Z,12.90
2019-04-20T06:53:47.466Z,13.30
2019-04-20T06:56:29.421Z,13.20
2019-04-20T06:59:21.389Z,13.50
2019-04-20T07:01:25.241Z,13.50
2019-04-20T07:04:15.659Z,13.70
2019-04-20T07:06:43.565Z,13.90
2019-04-20T07:09:01.751Z,14.00
2019-04-20T07:11:26.630Z,14.20
2019-04-20T07:13:44.480Z,14.40
2019-04-20T07:16:36.287Z,14.70
2019-04-20T07:19:15.399Z,14.70
2019-04-20T07:22:10.525Z,15.00
2019-04-20T07:24:33.181Z,14.90
2019-04-20T07:27:04.675Z,15.00
2019-04-20T07:29:36.890Z,15.00
2019-04-20T07:31:55.312Z,15.30
2019-04-20T07:34:26.182Z,15.30
2019-04-20T07:37:09.837Z,15.40
2019-04-20T07:39:31.583Z,15.50
2019-04-20T07:42:04.546Z,15.60
2019-04-20T07:44:35.972Z,15.70
2019-04-20T07:47:02.789Z,16.10
2019-04-20T07:49:24.674Z,15.70
2019-04-20T07:51:38.405Z,15.80
2019-04-20T07:54:30.140Z,16.10
2019-04-20T07:59:14.288Z,16.30
2019-04-20T08:02:16.229Z,16.40
2019-04-20T08:05:01.678Z,16.40
2019-04-20T08:07:17.448Z,16.40
2019-04-20T08:09:54.436Z,16.50
2019-04-20T08:12:49.914Z,16.60
2019-04-20T08:15:24.994Z,16.90
2019-04-20T08:17:52.560Z,17.20
2019-04-20T08:20:16.736Z,17.00
2019-04-20T08:22:47.964Z,17.00
2019-04-20T08:25:04.517Z,16.90
2019-04-20T08:27:25.742Z,17.00
2019-04-20T08:30:18.197Z,17.00
2019-04-20T08:33:04.176Z,17.10
2019-04-20T08:35:46.439Z,16.90
2019-04-20T08:38:26.432Z,16.90
2019-04-20T08:40:41.817Z,16.80
2019-04-20T08:43:31.485Z,17.10
2019-04-20T08:45:41.987Z,17.20
2019-04-20T08:48:14.205Z,17.20
2019-04-20T08:50:36.399Z,17.10
2019-04-20T08:53:14.522Z,17.40
2019-04-20T08:55:36.249Z,17.50
2019-04-20T08:57:46.860Z,17.50
2019-04-20T09:00:18.265Z,17.40
2019-04-20T09:02:51.739Z,17.40
2019-04-20T09:05:30.341Z,17.20
2019-04-20T09:07:53.840Z,17.20
2019-04-20T09:10:34.434Z,17.40
2019-04-20T09:12:59.706Z,17.20
2019-04-20T09:15:14.656Z,17.20
2019-04-20T09:18:19.763Z,17.20
2019-04-20T09:20:44.670Z,17.30
2019-04-20T09:23:26.684Z,17.70
2019-04-20T09:28:37.150Z,18.00
2019-04-20T09:31:26.859Z,18.10
2019-04-20T09:34:02.551Z,17.90
2019-04-20T09:36:49.825Z,17.80
2019-04-20T09:39:33.893Z,17.90
2019-04-20T09:42:14.700Z,18.10
2019-04-20T09:44:47.740Z,18.00
2019-04-20T09:47:12.360Z,18.20
2019-04-20T09:49:51.862Z,18.40
2019-04-20T09:52:21.195Z,18.40
2019-04-20T09:54:56.395Z,18.50
2019-04-20T09:57:30.671Z,18.50
2019-04-20T09:59:57.551Z,18.60
2019-04-20T10:02:15.680Z,18.60
2019-04-20T10:04:37.613Z,18.70
2019-04-20T10:07:09.583Z,18.90
2019-04-20T10:09:39.873Z,18.80
2019-04-20T10:12:04.108Z,18.60
2019-04-20T10:14:32.978Z,18.60
2019-04-20T10:17:02.009Z,18.80
2019-04-20T10:19:33.667Z,18.70
2019-04-20T10:22:00.272Z,18.80
2019-04-20T10:24:28.542Z,19.00
2019-04-20T10:26:56.608Z,18.90
2019-04-20T10:29:25.697Z,19.10
2019-04-20T10:31:58.299Z,19.30
2019-04-20T10:34:24.092Z,19.20
2019-04-20T10:37:11.552Z,19.20
2019-04-20T10:39:40.529Z,19.10
2019-04-20T10:42:08.217Z,19.20
2019-04-20T10:44:36.917Z,19.30
2019-04-20T10:47:05.045Z,19.40
2019-04-20T10:49:33.231Z,19.40
2019-04-20T10:52:01.953Z,19.40
2019-04-20T10:54:30.285Z,19.20
2019-04-20T10:56:57.851Z,19.50
2019-04-20T10:59:25.737Z,19.50
2019-04-20T11:01:53.849Z,19.70
2019-04-20T11:04:22.761Z,19.90
2019-04-20T11:06:50.611Z,20.20
2019-04-20T11:09:18.520Z,20.10
2019-04-20T11:11:46.251Z,20.20
2019-04-20T11:14:22.816Z,20.10
2019-04-20T11:16:44.400Z,20.10
2019-04-20T11:19:13.294Z,20.10
2019-04-20T17:35:50.317Z,20.60
2019-04-20T17:38:06.754Z,20.00
2019-04-20T17:40:58.740Z,20.00
2019-04-20T17:43:16.083Z,19.00
2019-04-20T17:45:43.210Z,18.90
2019-04-20T17:48:17.685Z,18.20
2019-04-20T17:50:54.563Z,18.20
2019-04-20T17:53:22.902Z,17.80
2019-04-20T17:55:44.871Z,17.60
2019-04-20T17:58:19.044Z,17.20
2019-04-20T18:01:03.610Z,16.60
2019-04-20T18:04:04.985Z,16.30
2019-04-20T18:06:21.269Z,16.00
2019-04-20T18:08:50.587Z,15.90
2019-04-20T18:11:09.213Z,15.70
2019-04-20T18:13:33.980Z,15.60
2019-04-20T18:16:22.244Z,15.10
2019-04-20T18:19:01.504Z,14.70
2019-04-20T18:21:28.734Z,14.80
2019-04-20T18:23:56.597Z,14.30
2019-04-20T18:26:46.688Z,14.20
2019-04-20T18:29:15.027Z,14.00
2019-04-20T18:31:41.679Z,13.90
2019-04-20T18:34:18.371Z,13.80
2019-04-20T18:36:47.195Z,13.60
2019-04-20T18:39:16.229Z,13.60
2019-04-20T18:41:48.582Z,13.50
2019-04-20T18:44:12.851Z,13.30
2019-04-20T18:47:06.690Z,13.30
2019-04-20T18:49:24.389Z,13.30
2019-04-20T18:51:39.852Z,13.30
2019-04-20T18:54:13.744Z,13.20
2019-04-20T18:56:43.999Z,13.10
2019-04-20T18:59:07.087Z,13.00
2019-04-20T19:01:39.547Z,12.90
2019-04-20T19:04:05.642Z,13.30
2019-04-20T19:06:34.083Z,13.00
2019-04-20T19:09:02.781Z,13.10
2019-04-20T19:11:37.532Z,13.10
2019-04-20T19:14:33.518Z,13.10
2019-04-20T19:17:09.966Z,13.00
2019-04-20T19:19:38.685Z,12.90
2019-04-20T19:21:58.483Z,12.80
2019-04-20T19:24:29.287Z,12.80
2019-04-20T19:27:00.133Z,12.60
2019-04-20T19:29:33.025Z,12.60
2019-04-20T19:32:14.086Z,12.50
2019-04-20T19:34:37.734Z,12.40
2019-04-20T19:37:07.771Z,12.30
2019-04-20T19:39:39.839Z,12.30
2019-04-20T19:42:02.935Z,12.30
2019-04-20T19:44:32.780Z,12.30
2019-04-20T19:47:10.632Z,12.00
2019-04-20T19:49:34.017Z,11.90
2019-04-20T19:52:21.021Z,11.60
2019-04-20T19:54:40.063Z,11.70
2019-04-20T19:57:02.864Z,11.70
2019-04-20T19:59:26.077Z,11.60
2019-04-20T20:01:47.688Z,11.60
2019-04-20T20:04:15.710Z,11.40
2019-04-20T20:06:49.014Z,11.30
2019-04-20T20:09:14.390Z,11.40
2019-04-20T20:11:44.490Z,11.40
2019-04-20T20:14:13.289Z,11.20
2019-04-20T20:16:58.864Z,11.20
2019-04-20T20:19:21.363Z,11.20
2019-04-20T20:21:58.116Z,11.20
2019-04-20T20:24:11.277Z,11.10
2019-04-20T20:26:44.498Z,11.10
2019-04-20T20:29:19.740Z,11.10
2019-04-20T20:31:54.012Z,10.90
2019-04-20T20:34:16.708Z,10.90
2019-04-20T20:36:43.652Z,10.80
2019-04-20T20:39:14.620Z,10.70
2019-04-20T20:41:49.109Z,10.70
2019-04-20T20:44:15.702Z,10.50
2019-04-20T20:46:48.852Z,10.40
2019-04-20T20:49:23.899Z,10.40
2019-04-20T20:51:54.310Z,10.30
2019-04-20T20:54:09.931Z,10.20
2019-04-20T20:56:35.624Z,10.30
2019-04-20T20:59:09.502Z,10.40
2019-04-20T21:01:40.456Z,10.20
2019-04-20T21:04:00.664Z,10.10
2019-04-20T21:06:28.748Z,10.00
2019-04-20T21:08:59.939Z,10.00
2019-04-20T21:11:29.464Z,10.00
2019-04-20T21:13:56.235Z,10.00
2019-04-20T21:16:29.203Z,10.10
2019-04-20T21:21:38.842Z,10.10
2019-04-20T21:24:03.902Z,10.10
2019-04-20T21:28:59.743Z,10.10
2019-04-20T21:31:31.066Z,10.10
2019-04-20T21:34:01.925Z,10.00
2019-04-20T21:36:31.373Z,10.00
2019-04-20T21:38:58.082Z,10.00
2019-04-20T21:41:27.467Z,10.00
2019-04-20T21:43:55.986Z,9.90
2019-04-20T21:46:24.878Z,9.90
2019-04-20T21:49:08.119Z,9.90
2019-04-20T21:51:32.198Z,9.90
2019-04-20T21:53:53.492Z,9.80
2019-04-20T21:58:54.583Z,9.70
2019-04-20T22:01:27.218Z,9.70
2019-04-20T22:03:50.242Z,9.60
2019-04-20T22:06:18.351Z,9.60
2019-04-20T22:08:51.814Z,9.50
2019-04-20T22:11:15.805Z,9.50
2019-04-20T22:13:45.532Z,9.30
2019-04-20T22:16:15.200Z,9.20
2019-04-20T22:18:56.856Z,9.20
2019-04-20T22:21:24.847Z,9.00
2019-04-20T22:23:59.744Z,8.90
2019-04-20T22:26:26.768Z,8.80
2019-04-20T22:28:42.404Z,8.80
2019-04-20T22:31:10.053Z,8.70
2019-04-20T22:33:41.149Z,8.60
2019-04-20T22:36:10.847Z,8.60
2019-04-20T22:39:07.502Z,8.50
2019-04-20T22:41:38.712Z,8.60
2019-04-20T22:44:12.400Z,8.50
2019-04-20T22:46:39.043Z,8.60
2019-04-20T22:49:25.176Z,8.50
2019-04-20T22:51:44.923Z,8.60
2019-04-20T22:54:21.706Z,8.50
2019-04-20T22:56:47.028Z,8.50
2019-04-20T22:59:13.030Z,8.50
2019-04-20T23:01:40.803Z,8.50
2019-04-20T23:04:04.363Z,8.50
2019-04-20T23:06:38.252Z,8.30
2019-04-20T23:09:04.840Z,8.30
2019-04-20T23:11:33.559Z,8.30
2019-04-20T23:14:00.457Z,8.30
2019-04-20T23:16:37.831Z,8.80
2019-04-20T23:18:58.220Z,8.30
2019-04-20T23:21:25.950Z,8.10
2019-04-20T23:24:00.404Z,8.10
2019-04-20T23:26:25.520Z,8.20
2019-04-20T23:28:55.586Z,8.10
2019-04-20T23:31:24.838Z,8.10
2019-04-20T23:33:51.968Z,8.10
2019-04-20T23:36:30.414Z,8.10
2019-04-20T23:38:53.786Z,8.10
2019-04-20T23:41:19.610Z,8.10
2019-04-20T23:44:04.770Z,8.20
2019-04-20T23:47:02.066Z,8.10
2019-04-20T23:49:37.653Z,8.10
2019-04-20T23:52:27.035Z,8.10
2019-04-20T23:54:30.363Z,8.10
2019-04-20T23:56:57.676Z,8.00
2019-04-20T23:59:32.371Z,7.90
